PWSweather.com
Personal Weather Stations
Station Observations
ISARDEGN48
BittiIT 08021

BittiIT 08021

Lat: 40.4805, Lon: 9.3887

Elevation: 1804

Station Type: La Crosse WS2355

http://meteobitti.altervista.org

High Low Average
Temperature 59.5°F15.3°C 50.7°F10.4°C 54.2°F12.3°C
Dew Point 51.2°F10.7°C 43.4°F6.3°C 47.6°F8.7°C
Winds 24.2 mph 38.9 kmh Calm Calm 11.0 mph S17.7 kmh S
Wind Gusts 28.9 mph46.5 kmh 9.2 mph14.8 kmh 19.0 mph30.6 kmh
Humidity 87% 69% 78%
Pressure 29.86 in1011.2 mb 29.76 in1007.8 mb -
Precipitation 0.00 in0.0 mm - -
Hour Temp Dew Point Humidity Winds Wind Gusts Pressure Precip Precip Rate Daily Precip Total
12:00 AM 53.2°F11.8°C 45.9°F7.7°C 76% 2.2 mph ESE3.5 kmh ESE 20.4 mph32.8 kmh 29.77 in1008.1 mb 0.00 in0.0 mm 0.00 in0.0 mm 0.00 in0.0 mm
12:05 AM 53.2°F11.8°C 45.9°F7.7°C 76% 7.4 mph SE11.9 kmh SE 20.4 mph32.8 kmh 29.77 in1008.1 mb 0.00 in0.0 mm 0.00 in0.0 mm 0.00 in0.0 mm
12:10 AM 53.2°F11.8°C 45.9°F7.7°C 76% 4.7 mph SE7.6 kmh SE 14.3 mph23.0 kmh 29.77 in1008.1 mb 0.00 in0.0 mm 0.00 in0.0 mm 0.00 in0.0 mm
12:15 AM 53.2°F11.8°C 45.9°F7.7°C 76% 3.4 mph SE5.5 kmh SE 14.3 mph23.0 kmh 29.77 in1008.1 mb 0.00 in0.0 mm 0.00 in0.0 mm 0.00 in0.0 mm
12:20 AM 53.2°F11.8°C 45.9°F7.7°C 76% 7.4 mph S11.9 kmh S 14.1 mph22.7 kmh 29.77 in1008.1 mb 0.00 in0.0 mm 0.00 in0.0 mm 0.00 in0.0 mm
12:25 AM 53.4°F11.9°C 46.0°F7.8°C 76% 19.2 mph S30.9 kmh S 19.2 mph30.9 kmh 29.77 in1008.1 mb 0.00 in0.0 mm 0.00 in0.0 mm 0.00 in0.0 mm
12:30 AM 53.4°F11.9°C 46.0°F7.8°C 76% 16.3 mph S26.2 kmh S 20.1 mph32.3 kmh 29.77 in1008.1 mb 0.00 in0.0 mm 0.00 in0.0 mm 0.00 in0.0 mm
12:35 AM 53.4°F11.9°C 46.0°F7.8°C 76% 9.4 mph S15.1 kmh S 22.1 mph35.6 kmh 29.78 in1008.5 mb 0.00 in0.0 mm 0.00 in0.0 mm 0.00 in0.0 mm
12:40 AM 53.4°F11.9°C 46.0°F7.8°C 76% 11.0 mph SSW17.7 kmh SSW 22.1 mph35.6 kmh 29.78 in1008.5 mb 0.00 in0.0 mm 0.00 in0.0 mm 0.00 in0.0 mm
12:45 AM 53.4°F11.9°C 46.0°F7.8°C 76% 12.3 mph SSW19.8 kmh SSW 21.7 mph34.9 kmh 29.78 in1008.5 mb 0.00 in0.0 mm 0.00 in0.0 mm 0.00 in0.0 mm
12:50 AM 53.4°F11.9°C 46.0°F7.8°C 76% 24.2 mph SSW38.9 kmh SSW 24.2 mph38.9 kmh 29.77 in1008.1 mb 0.00 in0.0 mm 0.00 in0.0 mm 0.00 in0.0 mm
12:55 AM 53.4°F11.9°C 45.3°F7.4°C 74% 17.2 mph SSW27.7 kmh SSW 24.2 mph38.9 kmh 29.77 in1008.1 mb 0.00 in0.0 mm 0.00 in0.0 mm 0.00 in0.0 mm
01:00 AM 53.4°F11.9°C 45.0°F7.2°C 73% 11.9 mph SSW19.2 kmh SSW 25.5 mph41.0 kmh 29.77 in1008.1 mb 0.00 in0.0 mm 0.00 in0.0 mm 0.00 in0.0 mm
01:05 AM 53.6°F12.0°C 45.1°F7.3°C 73% 17.7 mph S28.5 kmh S 25.5 mph41.0 kmh 29.77 in1008.1 mb 0.00 in0.0 mm 0.00 in0.0 mm 0.00 in0.0 mm
01:10 AM 53.8°F12.1°C 44.9°F7.2°C 72% 24.2 mph SSW38.9 kmh SSW 28.9 mph46.5 kmh 29.77 in1008.1 mb 0.00 in0.0 mm 0.00 in0.0 mm 0.00 in0.0 mm
01:15 AM 54.0°F12.2°C 45.1°F7.3°C 72% 17.4 mph SSW28.0 kmh SSW 28.9 mph46.5 kmh 29.77 in1008.1 mb 0.00 in0.0 mm 0.00 in0.0 mm 0.00 in0.0 mm
01:20 AM 53.8°F12.1°C 44.9°F7.2°C 72% 18.8 mph S30.3 kmh S 26.8 mph43.1 kmh 29.77 in1008.1 mb 0.00 in0.0 mm 0.00 in0.0 mm 0.00 in0.0 mm
01:25 AM 53.8°F12.1°C 45.3°F7.4°C 73% 17.0 mph S27.4 kmh S 26.8 mph43.1 kmh 29.77 in1008.1 mb 0.00 in0.0 mm 0.00 in0.0 mm 0.00 in0.0 mm
01:30 AM 53.8°F12.1°C 45.7°F7.6°C 74% 14.5 mph SSW23.3 kmh SSW 23.5 mph37.8 kmh 29.77 in1008.1 mb 0.00 in0.0 mm 0.00 in0.0 mm 0.00 in0.0 mm
01:35 AM 53.4°F11.9°C 45.7°F7.6°C 75% 20.8 mph SSW33.5 kmh SSW 25.9 mph41.7 kmh 29.77 in1008.1 mb 0.00 in0.0 mm 0.00 in0.0 mm 0.00 in0.0 mm
01:40 AM 53.4°F11.9°C 45.7°F7.6°C 75% 12.8 mph SSW20.6 kmh SSW 25.9 mph41.7 kmh 29.77 in1008.1 mb 0.00 in0.0 mm 0.00 in0.0 mm 0.00 in0.0 mm
01:45 AM 53.2°F11.8°C 45.5°F7.5°C 75% 20.1 mph SSW32.3 kmh SSW 25.7 mph41.4 kmh 29.77 in1008.1 mb 0.00 in0.0 mm 0.00 in0.0 mm 0.00 in0.0 mm
01:50 AM 53.4°F11.9°C 46.0°F7.8°C 76% 18.8 mph SSW30.3 kmh SSW 23.5 mph37.8 kmh 29.77 in1008.1 mb 0.00 in0.0 mm 0.00 in0.0 mm 0.00 in0.0 mm
01:55 AM 53.4°F11.9°C 46.0°F7.8°C 76% 23.3 mph SSW37.5 kmh SSW 23.5 mph37.8 kmh 29.77 in1008.1 mb 0.00 in0.0 mm 0.00 in0.0 mm 0.00 in0.0 mm
02:00 AM 53.4°F11.9°C 46.0°F7.8°C 76% 9.2 mph SSW14.8 kmh SSW 23.3 mph37.5 kmh 29.77 in1008.1 mb 0.00 in0.0 mm 0.00 in0.0 mm 0.00 in0.0 mm
02:05 AM 53.4°F11.9°C 46.4°F8.0°C 77% 14.3 mph SSW23.0 kmh SSW 19.0 mph30.6 kmh 29.77 in1008.1 mb 0.00 in0.0 mm 0.00 in0.0 mm 0.00 in0.0 mm
02:10 AM 53.4°F11.9°C 46.4°F8.0°C 77% 9.4 mph S15.1 kmh S 19.0 mph30.6 kmh 29.77 in1008.1 mb 0.00 in0.0 mm 0.00 in0.0 mm 0.00 in0.0 mm
02:15 AM 53.2°F11.8°C 46.6°F8.1°C 78% 7.6 mph S12.2 kmh S 19.0 mph30.6 kmh 29.77 in1008.1 mb 0.00 in0.0 mm 0.00 in0.0 mm 0.00 in0.0 mm
02:20 AM 53.2°F11.8°C 46.6°F8.1°C 78% 5.4 mph S8.7 kmh S 16.8 mph27.0 kmh 29.77 in1008.1 mb 0.00 in0.0 mm 0.00 in0.0 mm 0.00 in0.0 mm
02:25 AM 53.1°F11.7°C 46.4°F8.0°C 78% 9.6 mph S15.4 kmh S 17.9 mph28.8 kmh 29.77 in1008.1 mb 0.00 in0.0 mm 0.00 in0.0 mm 0.00 in0.0 mm
02:30 AM 52.9°F11.6°C 46.2°F7.9°C 78% 7.6 mph S12.2 kmh S 18.1 mph29.1 kmh 29.77 in1008.1 mb 0.00 in0.0 mm 0.00 in0.0 mm 0.00 in0.0 mm
02:35 AM 52.9°F11.6°C 46.2°F7.9°C 78% 11.2 mph S18.0 kmh S 18.1 mph29.1 kmh 29.78 in1008.5 mb 0.00 in0.0 mm 0.00 in0.0 mm 0.00 in0.0 mm
02:40 AM 52.9°F11.6°C 46.2°F7.9°C 78% 11.4 mph S18.3 kmh S 17.2 mph27.7 kmh 29.78 in1008.5 mb 0.00 in0.0 mm 0.00 in0.0 mm 0.00 in0.0 mm
02:45 AM 52.9°F11.6°C 46.6°F8.1°C 79% 15.7 mph S25.3 kmh S 18.3 mph29.5 kmh 29.78 in1008.5 mb 0.00 in0.0 mm 0.00 in0.0 mm 0.00 in0.0 mm
02:50 AM 52.9°F11.6°C 46.6°F8.1°C 79% 16.3 mph S26.2 kmh S 22.8 mph36.7 kmh 29.77 in1008.1 mb 0.00 in0.0 mm 0.00 in0.0 mm 0.00 in0.0 mm
02:55 AM 52.9°F11.6°C 46.6°F8.1°C 79% 11.9 mph S19.2 kmh S 22.8 mph36.7 kmh 29.77 in1008.1 mb 0.00 in0.0 mm 0.00 in0.0 mm 0.00 in0.0 mm
03:00 AM 52.9°F11.6°C 46.9°F8.3°C 80% 13.6 mph SSW21.9 kmh SSW 17.9 mph28.8 kmh 29.78 in1008.5 mb 0.00 in0.0 mm 0.00 in0.0 mm 0.00 in0.0 mm
03:05 AM 52.9°F11.6°C 46.9°F8.3°C 80% 7.8 mph SSW12.6 kmh SSW 17.2 mph27.7 kmh 29.78 in1008.5 mb 0.00 in0.0 mm 0.00 in0.0 mm 0.00 in0.0 mm
03:10 AM 52.9°F11.6°C 47.2°F8.4°C 81% 11.9 mph S19.2 kmh S 17.2 mph27.7 kmh 29.78 in1008.5 mb 0.00 in0.0 mm 0.00 in0.0 mm 0.00 in0.0 mm
03:15 AM 52.9°F11.6°C 47.2°F8.4°C 81% 12.1 mph SSW19.5 kmh SSW 15.0 mph24.1 kmh 29.77 in1008.1 mb 0.00 in0.0 mm 0.00 in0.0 mm 0.00 in0.0 mm
03:20 AM 52.7°F11.5°C 47.1°F8.4°C 81% 11.0 mph SSW17.7 kmh SSW 15.0 mph24.1 kmh 29.77 in1008.1 mb 0.00 in0.0 mm 0.00 in0.0 mm 0.00 in0.0 mm
03:25 AM 52.7°F11.5°C 47.4°F8.6°C 82% 11.9 mph SSW19.2 kmh SSW 15.2 mph24.5 kmh 29.78 in1008.5 mb 0.00 in0.0 mm 0.00 in0.0 mm 0.00 in0.0 mm
03:30 AM 52.7°F11.5°C 47.1°F8.4°C 81% 13.4 mph SSW21.6 kmh SSW 15.9 mph25.6 kmh 29.77 in1008.1 mb 0.00 in0.0 mm 0.00 in0.0 mm 0.00 in0.0 mm
03:35 AM 52.9°F11.6°C 46.9°F8.3°C 80% 8.5 mph S13.7 kmh S 19.0 mph30.6 kmh 29.77 in1008.1 mb 0.00 in0.0 mm 0.00 in0.0 mm 0.00 in0.0 mm
03:40 AM 52.9°F11.6°C 46.9°F8.3°C 80% 12.3 mph SSW19.8 kmh SSW 19.0 mph30.6 kmh 29.76 in1007.8 mb 0.00 in0.0 mm 0.00 in0.0 mm 0.00 in0.0 mm
03:45 AM 53.2°F11.8°C 47.3°F8.5°C 80% 14.8 mph S23.8 kmh S 17.9 mph28.8 kmh 29.76 in1007.8 mb 0.00 in0.0 mm 0.00 in0.0 mm 0.00 in0.0 mm
03:50 AM 53.4°F11.9°C 47.1°F8.4°C 79% 15.7 mph S25.3 kmh S 18.6 mph29.9 kmh 29.76 in1007.8 mb 0.00 in0.0 mm 0.00 in0.0 mm 0.00 in0.0 mm
03:55 AM 53.6°F12.0°C 47.3°F8.5°C 79% 17.2 mph S27.7 kmh S 20.8 mph33.5 kmh 29.77 in1008.1 mb 0.00 in0.0 mm 0.00 in0.0 mm 0.00 in0.0 mm
04:00 AM 53.8°F12.1°C 47.5°F8.6°C 79% 11.6 mph SSW18.7 kmh SSW 20.8 mph33.5 kmh 29.76 in1007.8 mb 0.00 in0.0 mm 0.00 in0.0 mm 0.00 in0.0 mm
04:05 AM 53.8°F12.1°C 47.5°F8.6°C 79% 11.0 mph SSW17.7 kmh SSW 23.7 mph38.1 kmh 29.76 in1007.8 mb 0.00 in0.0 mm 0.00 in0.0 mm 0.00 in0.0 mm
04:10 AM 53.8°F12.1°C 47.8°F8.8°C 80% 10.3 mph S16.6 kmh S 23.7 mph38.1 kmh 29.76 in1007.8 mb 0.00 in0.0 mm 0.00 in0.0 mm 0.00 in0.0 mm
04:15 AM 53.4°F11.9°C 47.5°F8.6°C 80% 16.3 mph S26.2 kmh S 21.0 mph33.8 kmh 29.76 in1007.8 mb 0.00 in0.0 mm 0.00 in0.0 mm 0.00 in0.0 mm
04:20 AM 53.4°F11.9°C 47.5°F8.6°C 80% 7.2 mph S11.6 kmh S 20.1 mph32.3 kmh 29.76 in1007.8 mb 0.00 in0.0 mm 0.00 in0.0 mm 0.00 in0.0 mm
04:25 AM 53.4°F11.9°C 47.5°F8.6°C 80% 10.5 mph SSW16.9 kmh SSW 24.8 mph39.9 kmh 29.77 in1008.1 mb 0.00 in0.0 mm 0.00 in0.0 mm 0.00 in0.0 mm
04:30 AM 53.4°F11.9°C 47.5°F8.6°C 80% 13.6 mph SSW21.9 kmh SSW 24.8 mph39.9 kmh 29.76 in1007.8 mb 0.00 in0.0 mm 0.00 in0.0 mm 0.00 in0.0 mm
04:35 AM 53.4°F11.9°C 47.5°F8.6°C 80% 9.2 mph SSW14.8 kmh SSW 19.5 mph31.4 kmh 29.77 in1008.1 mb 0.00 in0.0 mm 0.00 in0.0 mm 0.00 in0.0 mm
04:40 AM 53.4°F11.9°C 47.5°F8.6°C 80% 10.5 mph SSW16.9 kmh SSW 18.3 mph29.5 kmh 29.76 in1007.8 mb 0.00 in0.0 mm 0.00 in0.0 mm 0.00 in0.0 mm
04:45 AM 53.4°F11.9°C 47.1°F8.4°C 79% 15.9 mph SSW25.6 kmh SSW 19.7 mph31.7 kmh 29.77 in1008.1 mb 0.00 in0.0 mm 0.00 in0.0 mm 0.00 in0.0 mm
04:50 AM 53.4°F11.9°C 47.1°F8.4°C 79% 10.5 mph SSW16.9 kmh SSW 19.7 mph31.7 kmh 29.77 in1008.1 mb 0.00 in0.0 mm 0.00 in0.0 mm 0.00 in0.0 mm
04:55 AM 53.4°F11.9°C 47.1°F8.4°C 79% 13.4 mph SSW21.6 kmh SSW 19.2 mph30.9 kmh 29.77 in1008.1 mb 0.00 in0.0 mm 0.00 in0.0 mm 0.00 in0.0 mm
05:00 AM 53.4°F11.9°C 47.5°F8.6°C 80% 12.8 mph SSW20.6 kmh SSW 20.4 mph32.8 kmh 29.77 in1008.1 mb 0.00 in0.0 mm 0.00 in0.0 mm 0.00 in0.0 mm
05:05 AM 53.6°F12.0°C 47.7°F8.7°C 80% 7.2 mph S11.6 kmh S 20.4 mph32.8 kmh 29.76 in1007.8 mb 0.00 in0.0 mm 0.00 in0.0 mm 0.00 in0.0 mm
05:10 AM 53.6°F12.0°C 47.7°F8.7°C 80% 9.6 mph SSW15.4 kmh SSW 15.9 mph25.6 kmh 29.77 in1008.1 mb 0.00 in0.0 mm 0.00 in0.0 mm 0.00 in0.0 mm
05:15 AM 53.6°F12.0°C 47.7°F8.7°C 80% 8.7 mph SSW14.0 kmh SSW 17.4 mph28.0 kmh 29.77 in1008.1 mb 0.00 in0.0 mm 0.00 in0.0 mm 0.00 in0.0 mm
05:20 AM 53.4°F11.9°C 47.5°F8.6°C 80% 11.2 mph SSW18.0 kmh SSW 17.4 mph28.0 kmh 29.77 in1008.1 mb 0.00 in0.0 mm 0.00 in0.0 mm 0.00 in0.0 mm
05:25 AM 53.4°F11.9°C 47.8°F8.8°C 81% 6.7 mph SSW10.8 kmh SSW 16.3 mph26.2 kmh 29.77 in1008.1 mb 0.00 in0.0 mm 0.00 in0.0 mm 0.00 in0.0 mm
05:30 AM 53.4°F11.9°C 47.8°F8.8°C 81% 13.2 mph SSW21.2 kmh SSW 18.6 mph29.9 kmh 29.77 in1008.1 mb 0.00 in0.0 mm 0.00 in0.0 mm 0.00 in0.0 mm
05:35 AM 53.2°F11.8°C 47.9°F8.8°C 82% 12.8 mph SSW20.6 kmh SSW 24.6 mph39.6 kmh 29.77 in1008.1 mb 0.00 in0.0 mm 0.00 in0.0 mm 0.00 in0.0 mm
05:40 AM 53.4°F11.9°C 48.4°F9.1°C 83% 17.7 mph S28.5 kmh S 24.6 mph39.6 kmh 29.76 in1007.8 mb 0.00 in0.0 mm 0.00 in0.0 mm 0.00 in0.0 mm
05:45 AM 53.2°F11.8°C 48.5°F9.2°C 84% 10.3 mph SSW16.6 kmh SSW 20.8 mph33.5 kmh 29.77 in1008.1 mb 0.00 in0.0 mm 0.00 in0.0 mm 0.00 in0.0 mm
05:50 AM 53.2°F11.8°C 48.5°F9.2°C 84% 14.3 mph SSW23.0 kmh SSW 24.4 mph39.3 kmh 29.77 in1008.1 mb 0.00 in0.0 mm 0.00 in0.0 mm 0.00 in0.0 mm
05:55 AM 53.2°F11.8°C 48.5°F9.2°C 84% 18.8 mph SSW30.3 kmh SSW 24.4 mph39.3 kmh 29.77 in1008.1 mb 0.00 in0.0 mm 0.00 in0.0 mm 0.00 in0.0 mm
06:00 AM 53.2°F11.8°C 48.5°F9.2°C 84% 15.9 mph SSW25.6 kmh SSW 21.0 mph33.8 kmh 29.77 in1008.1 mb 0.00 in0.0 mm 0.00 in0.0 mm 0.00 in0.0 mm
06:05 AM 53.2°F11.8°C 48.8°F9.3°C 85% 14.3 mph SSW23.0 kmh SSW 21.9 mph35.2 kmh 29.77 in1008.1 mb 0.00 in0.0 mm 0.00 in0.0 mm 0.00 in0.0 mm
06:10 AM 53.2°F11.8°C 48.8°F9.3°C 85% 20.4 mph SSW32.8 kmh SSW 21.9 mph35.2 kmh 29.77 in1008.1 mb 0.00 in0.0 mm 0.00 in0.0 mm 0.00 in0.0 mm
06:15 AM 53.2°F11.8°C 48.8°F9.3°C 85% 17.7 mph SSW28.5 kmh SSW 21.5 mph34.6 kmh 29.77 in1008.1 mb 0.00 in0.0 mm 0.00 in0.0 mm 0.00 in0.0 mm
06:20 AM 53.2°F11.8°C 48.8°F9.3°C 85% 19.5 mph SSW31.4 kmh SSW 21.5 mph34.6 kmh 29.77 in1008.1 mb 0.00 in0.0 mm 0.00 in0.0 mm 0.00 in0.0 mm
06:25 AM 53.2°F11.8°C 49.1°F9.5°C 86% 18.8 mph SSW30.3 kmh SSW 28.6 mph46.0 kmh 29.77 in1008.1 mb 0.00 in0.0 mm 0.00 in0.0 mm 0.00 in0.0 mm
06:30 AM 53.4°F11.9°C 49.0°F9.4°C 85% 20.6 mph SSW33.2 kmh SSW 28.6 mph46.0 kmh 29.77 in1008.1 mb 0.00 in0.0 mm 0.00 in0.0 mm 0.00 in0.0 mm
06:35 AM 53.4°F11.9°C 49.0°F9.4°C 85% 21.9 mph SSW35.2 kmh SSW 26.8 mph43.1 kmh 29.77 in1008.1 mb 0.00 in0.0 mm 0.00 in0.0 mm 0.00 in0.0 mm
06:40 AM 53.4°F11.9°C 49.0°F9.4°C 85% 18.1 mph SSW29.1 kmh SSW 23.9 mph38.5 kmh 29.77 in1008.1 mb 0.00 in0.0 mm 0.00 in0.0 mm 0.00 in0.0 mm
06:45 AM 53.4°F11.9°C 49.0°F9.4°C 85% 13.4 mph S21.6 kmh S 25.9 mph41.7 kmh 29.77 in1008.1 mb 0.00 in0.0 mm 0.00 in0.0 mm 0.00 in0.0 mm
06:50 AM 53.4°F11.9°C 49.0°F9.4°C 85% 17.9 mph S28.8 kmh S 25.9 mph41.7 kmh 29.77 in1008.1 mb 0.00 in0.0 mm 0.00 in0.0 mm 0.00 in0.0 mm
06:55 AM 53.4°F11.9°C 49.3°F9.6°C 86% 18.3 mph S29.5 kmh S 20.6 mph33.2 kmh 29.77 in1008.1 mb 0.00 in0.0 mm 0.00 in0.0 mm 0.00 in0.0 mm
07:00 AM 53.4°F11.9°C 49.3°F9.6°C 86% 15.4 mph S24.8 kmh S 21.0 mph33.8 kmh 29.77 in1008.1 mb 0.00 in0.0 mm 0.00 in0.0 mm 0.00 in0.0 mm
07:05 AM 53.4°F11.9°C 49.6°F9.8°C 87% 10.1 mph S16.3 kmh S 21.0 mph33.8 kmh 29.78 in1008.5 mb 0.00 in0.0 mm 0.00 in0.0 mm 0.00 in0.0 mm
07:10 AM 53.6°F12.0°C 49.8°F9.9°C 87% 23.3 mph S37.5 kmh S 23.3 mph37.5 kmh 29.78 in1008.5 mb 0.00 in0.0 mm 0.00 in0.0 mm 0.00 in0.0 mm
07:15 AM 53.6°F12.0°C 49.8°F9.9°C 87% 13.2 mph SSW21.2 kmh SSW 23.3 mph37.5 kmh 29.78 in1008.5 mb 0.00 in0.0 mm 0.00 in0.0 mm 0.00 in0.0 mm
07:20 AM 53.6°F12.0°C 49.5°F9.7°C 86% 4.5 mph S7.2 kmh S 23.3 mph37.5 kmh 29.77 in1008.1 mb 0.00 in0.0 mm 0.00 in0.0 mm 0.00 in0.0 mm
07:25 AM 53.6°F12.0°C 49.5°F9.7°C 86% 14.5 mph S23.3 kmh S 18.8 mph30.3 kmh 29.77 in1008.1 mb 0.00 in0.0 mm 0.00 in0.0 mm 0.00 in0.0 mm
07:30 AM 53.6°F12.0°C 49.8°F9.9°C 87% 7.8 mph S12.6 kmh S 18.8 mph30.3 kmh 29.78 in1008.5 mb 0.00 in0.0 mm 0.00 in0.0 mm 0.00 in0.0 mm
07:35 AM 53.6°F12.0°C 49.5°F9.7°C 86% 2.5 mph S4.0 kmh S 17.4 mph28.0 kmh 29.78 in1008.5 mb 0.00 in0.0 mm 0.00 in0.0 mm 0.00 in0.0 mm
07:40 AM 53.6°F12.0°C 49.5°F9.7°C 86% 6.5 mph S10.5 kmh S 13.0 mph20.9 kmh 29.78 in1008.5 mb 0.00 in0.0 mm 0.00 in0.0 mm 0.00 in0.0 mm
07:45 AM 53.6°F12.0°C 49.5°F9.7°C 86% 12.3 mph S19.8 kmh S 16.3 mph26.2 kmh 29.77 in1008.1 mb 0.00 in0.0 mm 0.00 in0.0 mm 0.00 in0.0 mm
07:50 AM 53.6°F12.0°C 49.2°F9.6°C 85% 11.0 mph S17.7 kmh S 18.3 mph29.5 kmh 29.77 in1008.1 mb 0.00 in0.0 mm 0.00 in0.0 mm 0.00 in0.0 mm
07:55 AM 53.8°F12.1°C 49.4°F9.7°C 85% 2.7 mph S4.3 kmh S 18.3 mph29.5 kmh 29.77 in1008.1 mb 0.00 in0.0 mm 0.00 in0.0 mm 0.00 in0.0 mm
08:00 AM 53.8°F12.1°C 49.4°F9.7°C 85% 3.8 mph S6.1 kmh S 13.0 mph20.9 kmh 29.77 in1008.1 mb 0.00 in0.0 mm 0.00 in0.0 mm 0.00 in0.0 mm
08:05 AM 53.6°F12.0°C 49.2°F9.6°C 85% 6.0 mph S9.7 kmh S 13.0 mph20.9 kmh 29.77 in1008.1 mb 0.00 in0.0 mm 0.00 in0.0 mm 0.00 in0.0 mm
08:10 AM 53.8°F12.1°C 49.4°F9.7°C 85% 3.8 mph S6.1 kmh S 9.4 mph15.1 kmh 29.78 in1008.5 mb 0.00 in0.0 mm 0.00 in0.0 mm 0.00 in0.0 mm
08:15 AM 53.8°F12.1°C 49.4°F9.7°C 85% 2.2 mph SSE3.5 kmh SSE 11.6 mph18.7 kmh 29.78 in1008.5 mb 0.00 in0.0 mm 0.00 in0.0 mm 0.00 in0.0 mm
08:20 AM 53.8°F12.1°C 49.0°F9.4°C 84% 5.6 mph S9.0 kmh S 11.6 mph18.7 kmh 29.78 in1008.5 mb 0.00 in0.0 mm 0.00 in0.0 mm 0.00 in0.0 mm
08:25 AM 53.8°F12.1°C 49.0°F9.4°C 84% 13.0 mph S20.9 kmh S 13.4 mph21.6 kmh 29.78 in1008.5 mb 0.00 in0.0 mm 0.00 in0.0 mm 0.00 in0.0 mm
08:30 AM 53.8°F12.1°C 48.7°F9.3°C 83% 6.0 mph S9.7 kmh S 16.8 mph27.0 kmh 29.78 in1008.5 mb 0.00 in0.0 mm 0.00 in0.0 mm 0.00 in0.0 mm
08:35 AM 53.8°F12.1°C 48.7°F9.3°C 83% 7.2 mph S11.6 kmh S 17.9 mph28.8 kmh 29.78 in1008.5 mb 0.00 in0.0 mm 0.00 in0.0 mm 0.00 in0.0 mm
08:40 AM 54.0°F12.2°C 48.9°F9.4°C 83% 7.6 mph S12.2 kmh S 17.9 mph28.8 kmh 29.78 in1008.5 mb 0.00 in0.0 mm 0.00 in0.0 mm 0.00 in0.0 mm
08:45 AM 54.0°F12.2°C 48.9°F9.4°C 83% 13.0 mph S20.9 kmh S 17.2 mph27.7 kmh 29.78 in1008.5 mb 0.00 in0.0 mm 0.00 in0.0 mm 0.00 in0.0 mm
08:50 AM 54.1°F12.3°C 49.4°F9.7°C 84% 11.0 mph S17.7 kmh S 17.4 mph28.0 kmh 29.78 in1008.5 mb 0.00 in0.0 mm 0.00 in0.0 mm 0.00 in0.0 mm
08:55 AM 54.1°F12.3°C 49.4°F9.7°C 84% 7.6 mph S12.2 kmh S 17.4 mph28.0 kmh 29.78 in1008.5 mb 0.00 in0.0 mm 0.00 in0.0 mm 0.00 in0.0 mm
09:00 AM 54.1°F12.3°C 49.4°F9.7°C 84% 10.7 mph S17.2 kmh S 17.2 mph27.7 kmh 29.78 in1008.5 mb 0.00 in0.0 mm 0.00 in0.0 mm 0.00 in0.0 mm
09:05 AM 54.0°F12.2°C 49.2°F9.6°C 84% 11.0 mph S17.7 kmh S 20.8 mph33.5 kmh 29.77 in1008.1 mb 0.00 in0.0 mm 0.00 in0.0 mm 0.00 in0.0 mm
09:10 AM 54.1°F12.3°C 49.4°F9.7°C 84% 18.1 mph S29.1 kmh S 21.0 mph33.8 kmh 29.78 in1008.5 mb 0.00 in0.0 mm 0.00 in0.0 mm 0.00 in0.0 mm
09:15 AM 54.1°F12.3°C 49.7°F9.8°C 85% 13.2 mph S21.2 kmh S 21.0 mph33.8 kmh 29.78 in1008.5 mb 0.00 in0.0 mm 0.00 in0.0 mm 0.00 in0.0 mm
09:20 AM 54.1°F12.3°C 49.7°F9.8°C 85% 7.4 mph S11.9 kmh S 19.5 mph31.4 kmh 29.78 in1008.5 mb 0.00 in0.0 mm 0.00 in0.0 mm 0.00 in0.0 mm
09:25 AM 54.1°F12.3°C 49.7°F9.8°C 85% 6.9 mph S11.1 kmh S 19.5 mph31.4 kmh 29.78 in1008.5 mb 0.00 in0.0 mm 0.00 in0.0 mm 0.00 in0.0 mm
09:30 AM 54.1°F12.3°C 49.4°F9.7°C 84% 14.5 mph S23.3 kmh S 17.2 mph27.7 kmh 29.78 in1008.5 mb 0.00 in0.0 mm 0.00 in0.0 mm 0.00 in0.0 mm
09:35 AM 54.5°F12.5°C 49.7°F9.8°C 84% 8.9 mph S14.3 kmh S 17.4 mph28.0 kmh 29.79 in1008.8 mb 0.00 in0.0 mm 0.00 in0.0 mm 0.00 in0.0 mm
09:40 AM 54.7°F12.6°C 49.9°F9.9°C 84% 8.5 mph S13.7 kmh S 17.4 mph28.0 kmh 29.79 in1008.8 mb 0.00 in0.0 mm 0.00 in0.0 mm 0.00 in0.0 mm
09:45 AM 54.7°F12.6°C 49.9°F9.9°C 84% 6.7 mph S10.8 kmh S 14.5 mph23.3 kmh 29.79 in1008.8 mb 0.00 in0.0 mm 0.00 in0.0 mm 0.00 in0.0 mm
09:50 AM 54.7°F12.6°C 49.9°F9.9°C 84% 12.1 mph S19.5 kmh S 17.0 mph27.4 kmh 29.80 in1009.1 mb 0.00 in0.0 mm 0.00 in0.0 mm 0.00 in0.0 mm
09:55 AM 54.7°F12.6°C 49.9°F9.9°C 84% 10.5 mph S16.9 kmh S 17.0 mph27.4 kmh 29.80 in1009.1 mb 0.00 in0.0 mm 0.00 in0.0 mm 0.00 in0.0 mm
10:00 AM 54.7°F12.6°C 49.9°F9.9°C 84% 13.9 mph S22.4 kmh S 18.3 mph29.5 kmh 29.80 in1009.1 mb 0.00 in0.0 mm 0.00 in0.0 mm 0.00 in0.0 mm
10:05 AM 54.7°F12.6°C 49.9°F9.9°C 84% 7.6 mph S12.2 kmh S 18.3 mph29.5 kmh 29.80 in1009.1 mb 0.00 in0.0 mm 0.00 in0.0 mm 0.00 in0.0 mm
10:10 AM 54.9°F12.7°C 50.1°F10.1°C 84% 3.6 mph S5.8 kmh S 16.6 mph26.7 kmh 29.80 in1009.1 mb 0.00 in0.0 mm 0.00 in0.0 mm 0.00 in0.0 mm
10:15 AM 55.0°F12.8°C 50.2°F10.1°C 84% 5.6 mph S9.0 kmh S 18.3 mph29.5 kmh 29.80 in1009.1 mb 0.00 in0.0 mm 0.00 in0.0 mm 0.00 in0.0 mm
10:20 AM 55.2°F12.9°C 50.4°F10.2°C 84% 11.6 mph S18.7 kmh S 18.3 mph29.5 kmh 29.80 in1009.1 mb 0.00 in0.0 mm 0.00 in0.0 mm 0.00 in0.0 mm
10:25 AM 55.2°F12.9°C 50.4°F10.2°C 84% 12.1 mph S19.5 kmh S 19.2 mph30.9 kmh 29.80 in1009.1 mb 0.00 in0.0 mm 0.00 in0.0 mm 0.00 in0.0 mm
10:30 AM 55.2°F12.9°C 50.4°F10.2°C 84% 14.5 mph S23.3 kmh S 20.8 mph33.5 kmh 29.80 in1009.1 mb 0.00 in0.0 mm 0.00 in0.0 mm 0.00 in0.0 mm
10:35 AM 55.2°F12.9°C 50.4°F10.2°C 84% 13.6 mph S21.9 kmh S 21.0 mph33.8 kmh 29.80 in1009.1 mb 0.00 in0.0 mm 0.00 in0.0 mm 0.00 in0.0 mm
10:40 AM 55.4°F13.0°C 50.6°F10.3°C 84% 14.3 mph S23.0 kmh S 21.0 mph33.8 kmh 29.80 in1009.1 mb 0.00 in0.0 mm 0.00 in0.0 mm 0.00 in0.0 mm
10:45 AM 55.6°F13.1°C 50.8°F10.4°C 84% 13.2 mph S21.2 kmh S 27.5 mph44.3 kmh 29.79 in1008.8 mb 0.00 in0.0 mm 0.00 in0.0 mm 0.00 in0.0 mm
10:50 AM 55.6°F13.1°C 50.8°F10.4°C 84% 18.8 mph S30.3 kmh S 27.5 mph44.3 kmh 29.79 in1008.8 mb 0.00 in0.0 mm 0.00 in0.0 mm 0.00 in0.0 mm
10:55 AM 55.9°F13.3°C 50.8°F10.4°C 83% 14.1 mph S22.7 kmh S 25.5 mph41.0 kmh 29.79 in1008.8 mb 0.00 in0.0 mm 0.00 in0.0 mm 0.00 in0.0 mm
11:00 AM 55.9°F13.3°C 50.8°F10.4°C 83% 16.8 mph S27.0 kmh S 25.5 mph41.0 kmh 29.79 in1008.8 mb 0.00 in0.0 mm 0.00 in0.0 mm 0.00 in0.0 mm
11:05 AM 55.9°F13.3°C 50.8°F10.4°C 83% 16.8 mph SSW27.0 kmh SSW 23.9 mph38.5 kmh 29.79 in1008.8 mb 0.00 in0.0 mm 0.00 in0.0 mm 0.00 in0.0 mm
11:10 AM 55.9°F13.3°C 50.8°F10.4°C 83% 17.2 mph S27.7 kmh S 28.9 mph46.5 kmh 29.79 in1008.8 mb 0.00 in0.0 mm 0.00 in0.0 mm 0.00 in0.0 mm
11:15 AM 56.1°F13.4°C 51.0°F10.6°C 82% 20.4 mph S32.8 kmh S 28.9 mph46.5 kmh 29.79 in1008.8 mb 0.00 in0.0 mm 0.00 in0.0 mm 0.00 in0.0 mm
11:20 AM 56.5°F13.6°C 51.0°F10.6°C 82% 15.0 mph S24.1 kmh S 23.7 mph38.1 kmh 29.78 in1008.5 mb 0.00 in0.0 mm 0.00 in0.0 mm 0.00 in0.0 mm
11:25 AM 56.5°F13.6°C 50.7°F10.4°C 81% 19.7 mph S31.7 kmh S 28.2 mph45.4 kmh 29.78 in1008.5 mb 0.00 in0.0 mm 0.00 in0.0 mm 0.00 in0.0 mm
11:30 AM 56.5°F13.6°C 50.7°F10.4°C 81% 15.0 mph S24.1 kmh S 28.2 mph45.4 kmh 29.78 in1008.5 mb 0.00 in0.0 mm 0.00 in0.0 mm 0.00 in0.0 mm
11:35 AM 56.7°F13.7°C 50.9°F10.5°C 80% 7.4 mph S11.9 kmh S 23.9 mph38.5 kmh 29.78 in1008.5 mb 0.00 in0.0 mm 0.00 in0.0 mm 0.00 in0.0 mm
11:40 AM 57.0°F13.9°C 51.2°F10.7°C 81% 11.9 mph S19.2 kmh S 23.5 mph37.8 kmh 29.78 in1008.5 mb 0.00 in0.0 mm 0.00 in0.0 mm 0.00 in0.0 mm
11:45 AM 57.0°F13.9°C 51.2°F10.7°C 81% 21.3 mph S34.3 kmh S 23.5 mph37.8 kmh 29.78 in1008.5 mb 0.00 in0.0 mm 0.00 in0.0 mm 0.00 in0.0 mm
11:50 AM 56.8°F13.8°C 51.0°F10.6°C 81% 10.5 mph S16.9 kmh S 23.3 mph37.5 kmh 29.78 in1008.5 mb 0.00 in0.0 mm 0.00 in0.0 mm 0.00 in0.0 mm
11:55 AM 57.0°F13.9°C 51.2°F10.7°C 81% 15.2 mph S24.5 kmh S 21.9 mph35.2 kmh 29.78 in1008.5 mb 0.00 in0.0 mm 0.00 in0.0 mm 0.00 in0.0 mm
12:00 PM 57.0°F13.9°C 51.2°F10.7°C 81% 12.8 mph S20.6 kmh S 25.3 mph40.7 kmh 29.78 in1008.5 mb 0.00 in0.0 mm 0.00 in0.0 mm 0.00 in0.0 mm
12:05 PM 57.0°F13.9°C 50.9°F10.5°C 80% 12.3 mph S19.8 kmh S 25.3 mph40.7 kmh 29.78 in1008.5 mb 0.00 in0.0 mm 0.00 in0.0 mm 0.00 in0.0 mm
12:10 PM 57.2°F14.0°C 51.1°F10.6°C 80% 11.0 mph S17.7 kmh S 24.2 mph38.9 kmh 29.78 in1008.5 mb 0.00 in0.0 mm 0.00 in0.0 mm 0.00 in0.0 mm
12:15 PM 57.4°F14.1°C 50.5°F10.3°C 78% 9.2 mph S14.8 kmh S 24.2 mph38.9 kmh 29.78 in1008.5 mb 0.00 in0.0 mm 0.00 in0.0 mm 0.00 in0.0 mm
12:20 PM 57.6°F14.2°C 50.4°F10.2°C 77% 11.9 mph S19.2 kmh S 21.0 mph33.8 kmh 29.78 in1008.5 mb 0.00 in0.0 mm 0.00 in0.0 mm 0.00 in0.0 mm
12:25 PM 57.9°F14.4°C 50.7°F10.4°C 77% 11.9 mph S19.2 kmh S 19.2 mph30.9 kmh 29.78 in1008.5 mb 0.00 in0.0 mm 0.00 in0.0 mm 0.00 in0.0 mm
12:30 PM 57.9°F14.4°C 50.7°F10.4°C 77% 12.1 mph S19.5 kmh S 19.2 mph30.9 kmh 29.78 in1008.5 mb 0.00 in0.0 mm 0.00 in0.0 mm 0.00 in0.0 mm
12:35 PM 58.3°F14.6°C 50.7°F10.4°C 76% 12.8 mph S20.6 kmh S 18.3 mph29.5 kmh 29.78 in1008.5 mb 0.00 in0.0 mm 0.00 in0.0 mm 0.00 in0.0 mm
12:40 PM 58.8°F14.9°C 50.9°F10.5°C 75% 2.0 mph S3.2 kmh S 15.2 mph24.5 kmh 29.78 in1008.5 mb 0.00 in0.0 mm 0.00 in0.0 mm 0.00 in0.0 mm
12:45 PM 58.8°F14.9°C 50.5°F10.3°C 74% 6.5 mph S10.5 kmh S 15.2 mph24.5 kmh 29.78 in1008.5 mb 0.00 in0.0 mm 0.00 in0.0 mm 0.00 in0.0 mm
12:50 PM 59.0°F15.0°C 50.0°F10.0°C 72% 2.7 mph S4.3 kmh S 15.2 mph24.5 kmh 29.78 in1008.5 mb 0.00 in0.0 mm 0.00 in0.0 mm 0.00 in0.0 mm
12:55 PM 58.8°F14.9°C 50.2°F10.1°C 73% 13.9 mph SSW22.4 kmh SSW 17.4 mph28.0 kmh 29.78 in1008.5 mb 0.00 in0.0 mm 0.00 in0.0 mm 0.00 in0.0 mm
01:00 PM 58.8°F14.9°C 50.5°F10.3°C 74% 18.1 mph SSW29.1 kmh SSW 18.1 mph29.1 kmh 29.78 in1008.5 mb 0.00 in0.0 mm 0.00 in0.0 mm 0.00 in0.0 mm
01:05 PM 58.5°F14.7°C 49.8°F9.9°C 73% 9.2 mph SSW14.8 kmh SSW 18.1 mph29.1 kmh 29.78 in1008.5 mb 0.00 in0.0 mm 0.00 in0.0 mm 0.00 in0.0 mm
01:10 PM 58.5°F14.7°C 49.8°F9.9°C 72% 12.3 mph SSW19.8 kmh SSW 17.9 mph28.8 kmh 29.78 in1008.5 mb 0.00 in0.0 mm 0.00 in0.0 mm 0.00 in0.0 mm
01:15 PM 58.5°F14.7°C 49.5°F9.7°C 72% 18.6 mph SSW29.9 kmh SSW 18.8 mph30.3 kmh 29.78 in1008.5 mb 0.00 in0.0 mm 0.00 in0.0 mm 0.00 in0.0 mm
01:20 PM 58.6°F14.8°C 49.6°F9.8°C 72% 3.4 mph SSW5.5 kmh SSW 22.8 mph36.7 kmh 29.77 in1008.1 mb 0.00 in0.0 mm 0.00 in0.0 mm 0.00 in0.0 mm
01:25 PM 58.6°F14.8°C 49.3°F9.6°C 71% 14.1 mph S22.7 kmh S 22.8 mph36.7 kmh 29.77 in1008.1 mb 0.00 in0.0 mm 0.00 in0.0 mm 0.00 in0.0 mm
01:30 PM 58.8°F14.9°C 49.5°F9.7°C 71% 2.7 mph S4.3 kmh S 17.4 mph28.0 kmh 29.77 in1008.1 mb 0.00 in0.0 mm 0.00 in0.0 mm 0.00 in0.0 mm
01:35 PM 58.8°F14.9°C 49.8°F9.9°C 72% 3.6 mph S5.8 kmh S 14.1 mph22.7 kmh 29.77 in1008.1 mb 0.00 in0.0 mm 0.00 in0.0 mm 0.00 in0.0 mm
01:40 PM 59.0°F15.0°C 50.0°F10.0°C 72% Calm Calm 13.4 mph21.6 kmh 29.77 in1008.1 mb 0.00 in0.0 mm 0.00 in0.0 mm 0.00 in0.0 mm
01:45 PM 59.4°F15.2°C 50.4°F10.2°C 72% 5.6 mph SSE9.0 kmh SSE 11.6 mph18.7 kmh 29.77 in1008.1 mb 0.00 in0.0 mm 0.00 in0.0 mm 0.00 in0.0 mm
01:50 PM 59.5°F15.3°C 50.5°F10.3°C 72% 6.0 mph SE9.7 kmh SE 12.1 mph19.5 kmh 29.77 in1008.1 mb 0.00 in0.0 mm 0.00 in0.0 mm 0.00 in0.0 mm
01:55 PM 59.4°F15.2°C 50.0°F10.0°C 71% 8.3 mph E13.4 kmh E 12.1 mph19.5 kmh 29.77 in1008.1 mb 0.00 in0.0 mm 0.00 in0.0 mm 0.00 in0.0 mm
02:00 PM 59.5°F15.3°C 49.8°F9.9°C 70% 3.6 mph E5.8 kmh E 9.2 mph14.8 kmh 29.77 in1008.1 mb 0.00 in0.0 mm 0.00 in0.0 mm 0.00 in0.0 mm
02:05 PM 59.5°F15.3°C 49.4°F9.7°C 69% 1.8 mph ESE2.9 kmh ESE 16.1 mph25.9 kmh 29.77 in1008.1 mb 0.00 in0.0 mm 0.00 in0.0 mm 0.00 in0.0 mm
02:10 PM 59.5°F15.3°C 49.8°F9.9°C 70% 4.3 mph E6.9 kmh E 16.1 mph25.9 kmh 29.77 in1008.1 mb 0.00 in0.0 mm 0.00 in0.0 mm 0.00 in0.0 mm
02:15 PM 59.5°F15.3°C 49.8°F9.9°C 70% 4.7 mph E7.6 kmh E 14.1 mph22.7 kmh 29.77 in1008.1 mb 0.00 in0.0 mm 0.00 in0.0 mm 0.00 in0.0 mm
02:20 PM 59.4°F15.2°C 49.6°F9.8°C 70% 2.2 mph E3.5 kmh E 17.4 mph28.0 kmh 29.77 in1008.1 mb 0.00 in0.0 mm 0.00 in0.0 mm 0.00 in0.0 mm
02:25 PM 59.4°F15.2°C 49.6°F9.8°C 70% 7.4 mph E11.9 kmh E 17.4 mph28.0 kmh 29.77 in1008.1 mb 0.00 in0.0 mm 0.00 in0.0 mm 0.00 in0.0 mm
02:30 PM 59.4°F15.2°C 50.0°F10.0°C 71% 10.1 mph ENE16.3 kmh ENE 14.5 mph23.3 kmh 29.77 in1008.1 mb 0.00 in0.0 mm 0.00 in0.0 mm 0.00 in0.0 mm
02:35 PM 59.2°F15.1°C 49.5°F9.7°C 70% 2.5 mph ENE4.0 kmh ENE 12.8 mph20.6 kmh 29.77 in1008.1 mb 0.00 in0.0 mm 0.00 in0.0 mm 0.00 in0.0 mm
02:40 PM 59.2°F15.1°C 49.5°F9.7°C 70% Calm Calm 13.4 mph21.6 kmh 29.78 in1008.5 mb 0.00 in0.0 mm 0.00 in0.0 mm 0.00 in0.0 mm
02:45 PM 59.2°F15.1°C 49.8°F9.9°C 71% 6.9 mph ESE11.1 kmh ESE 13.4 mph21.6 kmh 29.78 in1008.5 mb 0.00 in0.0 mm 0.00 in0.0 mm 0.00 in0.0 mm
02:50 PM 59.0°F15.0°C 49.6°F9.8°C 71% 4.3 mph ESE6.9 kmh ESE 10.5 mph16.9 kmh 29.78 in1008.5 mb 0.00 in0.0 mm 0.00 in0.0 mm 0.00 in0.0 mm
02:55 PM 58.8°F14.9°C 49.5°F9.7°C 71% 5.6 mph ESE9.0 kmh ESE 10.5 mph16.9 kmh 29.78 in1008.5 mb 0.00 in0.0 mm 0.00 in0.0 mm 0.00 in0.0 mm
03:00 PM 58.5°F14.7°C 49.1°F9.5°C 71% 2.7 mph SE4.3 kmh SE 13.4 mph21.6 kmh 29.78 in1008.5 mb 0.00 in0.0 mm 0.00 in0.0 mm 0.00 in0.0 mm
03:05 PM 58.3°F14.6°C 49.3°F9.6°C 72% 1.3 mph SSE2.1 kmh SSE 13.4 mph21.6 kmh 29.78 in1008.5 mb 0.00 in0.0 mm 0.00 in0.0 mm 0.00 in0.0 mm
03:10 PM 58.3°F14.6°C 49.3°F9.6°C 72% 6.0 mph S9.7 kmh S 11.9 mph19.2 kmh 29.78 in1008.5 mb 0.00 in0.0 mm 0.00 in0.0 mm 0.00 in0.0 mm
03:15 PM 57.9°F14.4°C 49.3°F9.6°C 73% Calm Calm 11.9 mph19.2 kmh 29.78 in1008.5 mb 0.00 in0.0 mm 0.00 in0.0 mm 0.00 in0.0 mm
03:20 PM 57.9°F14.4°C 49.3°F9.6°C 73% Calm Calm 10.5 mph16.9 kmh 29.78 in1008.5 mb 0.00 in0.0 mm 0.00 in0.0 mm 0.00 in0.0 mm
03:25 PM 57.7°F14.3°C 49.1°F9.5°C 73% 4.0 mph ESE6.4 kmh ESE 10.3 mph16.6 kmh 29.79 in1008.8 mb 0.00 in0.0 mm 0.00 in0.0 mm 0.00 in0.0 mm
03:30 PM 57.6°F14.2°C 49.3°F9.6°C 74% Calm Calm 10.3 mph16.6 kmh 29.79 in1008.8 mb 0.00 in0.0 mm 0.00 in0.0 mm 0.00 in0.0 mm
03:35 PM 57.4°F14.1°C 49.1°F9.5°C 74% Calm Calm 11.9 mph19.2 kmh 29.78 in1008.5 mb 0.00 in0.0 mm 0.00 in0.0 mm 0.00 in0.0 mm
03:40 PM 57.0°F13.9°C 48.7°F9.3°C 74% 2.2 mph SSE3.5 kmh SSE 11.9 mph19.2 kmh 29.79 in1008.8 mb 0.00 in0.0 mm 0.00 in0.0 mm 0.00 in0.0 mm
03:45 PM 57.0°F13.9°C 48.7°F9.3°C 74% 7.2 mph SSW11.6 kmh SSW 13.6 mph21.9 kmh 29.78 in1008.5 mb 0.00 in0.0 mm 0.00 in0.0 mm 0.00 in0.0 mm
03:50 PM 56.8°F13.8°C 48.6°F9.2°C 74% 9.2 mph SSW14.8 kmh SSW 15.2 mph24.5 kmh 29.79 in1008.8 mb 0.00 in0.0 mm 0.00 in0.0 mm 0.00 in0.0 mm
03:55 PM 56.8°F13.8°C 48.6°F9.2°C 74% 3.8 mph SSW6.1 kmh SSW 15.2 mph24.5 kmh 29.79 in1008.8 mb 0.00 in0.0 mm 0.00 in0.0 mm 0.00 in0.0 mm
04:00 PM 56.5°F13.6°C 48.2°F9.0°C 74% 13.2 mph SSW21.2 kmh SSW 15.7 mph25.3 kmh 29.79 in1008.8 mb 0.00 in0.0 mm 0.00 in0.0 mm 0.00 in0.0 mm
04:05 PM 56.5°F13.6°C 48.2°F9.0°C 74% 11.9 mph S19.2 kmh S 19.7 mph31.7 kmh 29.79 in1008.8 mb 0.00 in0.0 mm 0.00 in0.0 mm 0.00 in0.0 mm
04:10 PM 56.3°F13.5°C 48.1°F8.9°C 74% 13.4 mph S21.6 kmh S 20.1 mph32.3 kmh 29.79 in1008.8 mb 0.00 in0.0 mm 0.00 in0.0 mm 0.00 in0.0 mm
04:15 PM 56.1°F13.4°C 48.3°F9.1°C 75% 17.2 mph SSW27.7 kmh SSW 20.4 mph32.8 kmh 29.80 in1009.1 mb 0.00 in0.0 mm 0.00 in0.0 mm 0.00 in0.0 mm
04:20 PM 55.9°F13.3°C 48.1°F8.9°C 75% 16.8 mph SSW27.0 kmh SSW 20.4 mph32.8 kmh 29.80 in1009.1 mb 0.00 in0.0 mm 0.00 in0.0 mm 0.00 in0.0 mm
04:25 PM 55.9°F13.3°C 48.1°F8.9°C 75% 8.9 mph S14.3 kmh S 22.6 mph36.4 kmh 29.80 in1009.1 mb 0.00 in0.0 mm 0.00 in0.0 mm 0.00 in0.0 mm
04:30 PM 55.9°F13.3°C 48.1°F8.9°C 75% 9.8 mph S15.8 kmh S 22.6 mph36.4 kmh 29.80 in1009.1 mb 0.00 in0.0 mm 0.00 in0.0 mm 0.00 in0.0 mm
04:35 PM 55.8°F13.2°C 47.9°F8.8°C 75% 19.7 mph S31.7 kmh S 19.7 mph31.7 kmh 29.80 in1009.1 mb 0.00 in0.0 mm 0.00 in0.0 mm 0.00 in0.0 mm
04:40 PM 55.6°F13.1°C 47.7°F8.7°C 75% 15.2 mph S24.5 kmh S 20.4 mph32.8 kmh 29.80 in1009.1 mb 0.00 in0.0 mm 0.00 in0.0 mm 0.00 in0.0 mm
04:45 PM 55.4°F13.0°C 47.6°F8.7°C 75% 7.4 mph SSW11.9 kmh SSW 20.4 mph32.8 kmh 29.80 in1009.1 mb 0.00 in0.0 mm 0.00 in0.0 mm 0.00 in0.0 mm
04:50 PM 55.2°F12.9°C 47.7°F8.7°C 76% 10.5 mph SSW16.9 kmh SSW 21.9 mph35.2 kmh 29.79 in1008.8 mb 0.00 in0.0 mm 0.00 in0.0 mm 0.00 in0.0 mm
04:55 PM 55.2°F12.9°C 47.7°F8.7°C 76% 5.1 mph S8.2 kmh S 21.9 mph35.2 kmh 29.80 in1009.1 mb 0.00 in0.0 mm 0.00 in0.0 mm 0.00 in0.0 mm
05:00 PM 55.2°F12.9°C 47.7°F8.7°C 76% 14.3 mph S23.0 kmh S 21.3 mph34.3 kmh 29.79 in1008.8 mb 0.00 in0.0 mm 0.00 in0.0 mm 0.00 in0.0 mm
05:05 PM 55.0°F12.8°C 47.6°F8.7°C 76% 15.4 mph S24.8 kmh S 21.0 mph33.8 kmh 29.80 in1009.1 mb 0.00 in0.0 mm 0.00 in0.0 mm 0.00 in0.0 mm
05:10 PM 55.0°F12.8°C 47.9°F8.8°C 77% 17.9 mph S28.8 kmh S 20.1 mph32.3 kmh 29.80 in1009.1 mb 0.00 in0.0 mm 0.00 in0.0 mm 0.00 in0.0 mm
05:15 PM 54.7°F12.6°C 47.2°F8.4°C 76% 9.2 mph S14.8 kmh S 20.1 mph32.3 kmh 29.80 in1009.1 mb 0.00 in0.0 mm 0.00 in0.0 mm 0.00 in0.0 mm
05:20 PM 54.5°F12.5°C 47.1°F8.4°C 76% 17.4 mph SSW28.0 kmh SSW 19.9 mph32.0 kmh 29.80 in1009.1 mb 0.00 in0.0 mm 0.00 in0.0 mm 0.00 in0.0 mm
05:25 PM 54.5°F12.5°C 47.4°F8.6°C 77% 10.3 mph SSW16.6 kmh SSW 22.1 mph35.6 kmh 29.80 in1009.1 mb 0.00 in0.0 mm 0.00 in0.0 mm 0.00 in0.0 mm
05:30 PM 54.3°F12.4°C 46.9°F8.3°C 76% 16.8 mph SSW27.0 kmh SSW 22.1 mph35.6 kmh 29.80 in1009.1 mb 0.00 in0.0 mm 0.00 in0.0 mm 0.00 in0.0 mm
05:35 PM 54.3°F12.4°C 47.2°F8.4°C 77% 6.3 mph SSW10.1 kmh SSW 20.4 mph32.8 kmh 29.80 in1009.1 mb 0.00 in0.0 mm 0.00 in0.0 mm 0.00 in0.0 mm
05:40 PM 54.1°F12.3°C 47.1°F8.4°C 77% 8.9 mph SSW14.3 kmh SSW 20.4 mph32.8 kmh 29.80 in1009.1 mb 0.00 in0.0 mm 0.00 in0.0 mm 0.00 in0.0 mm
05:45 PM 54.1°F12.3°C 47.1°F8.4°C 77% 4.3 mph SSW6.9 kmh SSW 19.7 mph31.7 kmh 29.80 in1009.1 mb 0.00 in0.0 mm 0.00 in0.0 mm 0.00 in0.0 mm
05:50 PM 54.0°F12.2°C 46.9°F8.3°C 77% 8.5 mph S13.7 kmh S 19.7 mph31.7 kmh 29.80 in1009.1 mb 0.00 in0.0 mm 0.00 in0.0 mm 0.00 in0.0 mm
05:55 PM 53.8°F12.1°C 46.7°F8.2°C 77% 10.7 mph S17.2 kmh S 16.1 mph25.9 kmh 29.81 in1009.5 mb 0.00 in0.0 mm 0.00 in0.0 mm 0.00 in0.0 mm
06:00 PM 53.6°F12.0°C 46.6°F8.1°C 77% 11.2 mph SSW18.0 kmh SSW 15.4 mph24.8 kmh 29.81 in1009.5 mb 0.00 in0.0 mm 0.00 in0.0 mm 0.00 in0.0 mm
06:05 PM 53.4°F11.9°C 46.8°F8.2°C 78% 7.4 mph SSW11.9 kmh SSW 15.0 mph24.1 kmh 29.81 in1009.5 mb 0.00 in0.0 mm 0.00 in0.0 mm 0.00 in0.0 mm
06:10 PM 53.4°F11.9°C 47.1°F8.4°C 79% 11.6 mph SSW18.7 kmh SSW 13.2 mph21.2 kmh 29.81 in1009.5 mb 0.00 in0.0 mm 0.00 in0.0 mm 0.00 in0.0 mm
06:15 PM 53.2°F11.8°C 46.9°F8.3°C 79% 12.3 mph SSW19.8 kmh SSW 13.4 mph21.6 kmh 29.81 in1009.5 mb 0.00 in0.0 mm 0.00 in0.0 mm 0.00 in0.0 mm
06:20 PM 53.2°F11.8°C 46.9°F8.3°C 79% 11.2 mph S18.0 kmh S 17.2 mph27.7 kmh 29.81 in1009.5 mb 0.00 in0.0 mm 0.00 in0.0 mm 0.00 in0.0 mm
06:25 PM 52.9°F11.6°C 46.6°F8.1°C 79% 13.6 mph SSW21.9 kmh SSW 17.2 mph27.7 kmh 29.81 in1009.5 mb 0.00 in0.0 mm 0.00 in0.0 mm 0.00 in0.0 mm
06:30 PM 52.9°F11.6°C 46.2°F7.9°C 78% 11.6 mph S18.7 kmh S 15.7 mph25.3 kmh 29.81 in1009.5 mb 0.00 in0.0 mm 0.00 in0.0 mm 0.00 in0.0 mm
06:35 PM 52.9°F11.6°C 46.2°F7.9°C 78% 16.1 mph SSW25.9 kmh SSW 16.3 mph26.2 kmh 29.81 in1009.5 mb 0.00 in0.0 mm 0.00 in0.0 mm 0.00 in0.0 mm
06:40 PM 52.7°F11.5°C 46.1°F7.8°C 78% 8.5 mph S13.7 kmh S 18.8 mph30.3 kmh 29.81 in1009.5 mb 0.00 in0.0 mm 0.00 in0.0 mm 0.00 in0.0 mm
06:45 PM 52.7°F11.5°C 46.1°F7.8°C 78% 7.6 mph S12.2 kmh S 18.8 mph30.3 kmh 29.82 in1009.8 mb 0.00 in0.0 mm 0.00 in0.0 mm 0.00 in0.0 mm
06:50 PM 52.7°F11.5°C 46.1°F7.8°C 78% 15.2 mph SSW24.5 kmh SSW 17.2 mph27.7 kmh 29.82 in1009.8 mb 0.00 in0.0 mm 0.00 in0.0 mm 0.00 in0.0 mm
06:55 PM 52.7°F11.5°C 46.1°F7.8°C 78% 8.5 mph SSW13.7 kmh SSW 17.0 mph27.4 kmh 29.82 in1009.8 mb 0.00 in0.0 mm 0.00 in0.0 mm 0.00 in0.0 mm
07:00 PM 52.7°F11.5°C 46.1°F7.8°C 78% 11.6 mph SSW18.7 kmh SSW 17.0 mph27.4 kmh 29.82 in1009.8 mb 0.00 in0.0 mm 0.00 in0.0 mm 0.00 in0.0 mm
07:05 PM 52.5°F11.4°C 45.9°F7.7°C 78% 13.2 mph S21.2 kmh S 15.4 mph24.8 kmh 29.82 in1009.8 mb 0.00 in0.0 mm 0.00 in0.0 mm 0.00 in0.0 mm
07:10 PM 52.5°F11.4°C 45.9°F7.7°C 78% 3.1 mph S5.0 kmh S 17.2 mph27.7 kmh 29.83 in1010.2 mb 0.00 in0.0 mm 0.00 in0.0 mm 0.00 in0.0 mm
07:15 PM 52.3°F11.3°C 46.0°F7.8°C 79% 2.0 mph S3.2 kmh S 17.2 mph27.7 kmh 29.83 in1010.2 mb 0.00 in0.0 mm 0.00 in0.0 mm 0.00 in0.0 mm
07:20 PM 52.3°F11.3°C 46.0°F7.8°C 79% 13.2 mph S21.2 kmh S 19.2 mph30.9 kmh 29.83 in1010.2 mb 0.00 in0.0 mm 0.00 in0.0 mm 0.00 in0.0 mm
07:25 PM 52.3°F11.3°C 46.0°F7.8°C 79% 8.1 mph SSW13.0 kmh SSW 19.2 mph30.9 kmh 29.83 in1010.2 mb 0.00 in0.0 mm 0.00 in0.0 mm 0.00 in0.0 mm
07:30 PM 52.2°F11.2°C 46.2°F7.9°C 80% 7.4 mph SSW11.9 kmh SSW 17.2 mph27.7 kmh 29.83 in1010.2 mb 0.00 in0.0 mm 0.00 in0.0 mm 0.00 in0.0 mm
07:35 PM 52.2°F11.2°C 46.2°F7.9°C 80% 10.3 mph S16.6 kmh S 17.2 mph27.7 kmh 29.83 in1010.2 mb 0.00 in0.0 mm 0.00 in0.0 mm 0.00 in0.0 mm
07:40 PM 52.0°F11.1°C 46.0°F7.8°C 80% 6.7 mph S10.8 kmh S 19.9 mph32.0 kmh 29.83 in1010.2 mb 0.00 in0.0 mm 0.00 in0.0 mm 0.00 in0.0 mm
07:45 PM 52.0°F11.1°C 46.0°F7.8°C 80% 9.2 mph S14.8 kmh S 19.9 mph32.0 kmh 29.84 in1010.5 mb 0.00 in0.0 mm 0.00 in0.0 mm 0.00 in0.0 mm
07:50 PM 52.0°F11.1°C 46.0°F7.8°C 80% 1.8 mph S2.9 kmh S 13.6 mph21.9 kmh 29.84 in1010.5 mb 0.00 in0.0 mm 0.00 in0.0 mm 0.00 in0.0 mm
07:55 PM 51.8°F11.0°C 45.9°F7.7°C 80% 6.5 mph S10.5 kmh S 13.0 mph20.9 kmh 29.84 in1010.5 mb 0.00 in0.0 mm 0.00 in0.0 mm 0.00 in0.0 mm
08:00 PM 52.0°F11.1°C 45.7°F7.6°C 79% 11.6 mph S18.7 kmh S 14.3 mph23.0 kmh 29.84 in1010.5 mb 0.00 in0.0 mm 0.00 in0.0 mm 0.00 in0.0 mm
08:05 PM 52.0°F11.1°C 45.7°F7.6°C 79% 7.8 mph S12.6 kmh S 15.4 mph24.8 kmh 29.84 in1010.5 mb 0.00 in0.0 mm 0.00 in0.0 mm 0.00 in0.0 mm
08:10 PM 52.0°F11.1°C 45.7°F7.6°C 79% 11.0 mph S17.7 kmh S 15.4 mph24.8 kmh 29.84 in1010.5 mb 0.00 in0.0 mm 0.00 in0.0 mm 0.00 in0.0 mm
08:15 PM 52.0°F11.1°C 45.7°F7.6°C 79% 8.3 mph S13.4 kmh S 14.8 mph23.8 kmh 29.85 in1010.8 mb 0.00 in0.0 mm 0.00 in0.0 mm 0.00 in0.0 mm
08:20 PM 52.0°F11.1°C 45.7°F7.6°C 79% 13.2 mph S21.2 kmh S 14.8 mph23.8 kmh 29.85 in1010.8 mb 0.00 in0.0 mm 0.00 in0.0 mm 0.00 in0.0 mm
08:25 PM 52.0°F11.1°C 45.7°F7.6°C 79% 10.7 mph SSW17.2 kmh SSW 17.4 mph28.0 kmh 29.85 in1010.8 mb 0.00 in0.0 mm 0.00 in0.0 mm 0.00 in0.0 mm
08:30 PM 52.0°F11.1°C 45.3°F7.4°C 78% 13.4 mph SSW21.6 kmh SSW 19.0 mph30.6 kmh 29.85 in1010.8 mb 0.00 in0.0 mm 0.00 in0.0 mm 0.00 in0.0 mm
08:35 PM 52.0°F11.1°C 45.0°F7.2°C 77% 11.2 mph S18.0 kmh S 25.3 mph40.7 kmh 29.84 in1010.5 mb 0.00 in0.0 mm 0.00 in0.0 mm 0.00 in0.0 mm
08:40 PM 52.0°F11.1°C 45.0°F7.2°C 77% 11.6 mph SSW18.7 kmh SSW 25.3 mph40.7 kmh 29.85 in1010.8 mb 0.00 in0.0 mm 0.00 in0.0 mm 0.00 in0.0 mm
08:45 PM 52.0°F11.1°C 44.7°F7.1°C 76% 3.1 mph SSW5.0 kmh SSW 20.4 mph32.8 kmh 29.85 in1010.8 mb 0.00 in0.0 mm 0.00 in0.0 mm 0.00 in0.0 mm
08:50 PM 52.0°F11.1°C 44.7°F7.1°C 76% 14.3 mph S23.0 kmh S 17.7 mph28.5 kmh 29.86 in1011.2 mb 0.00 in0.0 mm 0.00 in0.0 mm 0.00 in0.0 mm
08:55 PM 52.0°F11.1°C 44.7°F7.1°C 76% 15.2 mph S24.5 kmh S 17.0 mph27.4 kmh 29.86 in1011.2 mb 0.00 in0.0 mm 0.00 in0.0 mm 0.00 in0.0 mm
09:00 PM 52.0°F11.1°C 44.7°F7.1°C 76% 6.0 mph S9.7 kmh S 24.4 mph39.3 kmh 29.86 in1011.2 mb 0.00 in0.0 mm 0.00 in0.0 mm 0.00 in0.0 mm
09:05 PM 52.0°F11.1°C 44.7°F7.1°C 76% 8.5 mph S13.7 kmh S 24.4 mph39.3 kmh 29.86 in1011.2 mb 0.00 in0.0 mm 0.00 in0.0 mm 0.00 in0.0 mm
09:10 PM 52.0°F11.1°C 45.0°F7.2°C 77% 14.3 mph S23.0 kmh S 14.3 mph23.0 kmh 29.86 in1011.2 mb 0.00 in0.0 mm 0.00 in0.0 mm 0.00 in0.0 mm
09:15 PM 51.8°F11.0°C 44.8°F7.1°C 77% 16.1 mph S25.9 kmh S 21.0 mph33.8 kmh 29.86 in1011.2 mb 0.00 in0.0 mm 0.00 in0.0 mm 0.00 in0.0 mm
09:20 PM 51.6°F10.9°C 44.7°F7.1°C 77% 16.6 mph S26.7 kmh S 21.0 mph33.8 kmh 29.86 in1011.2 mb 0.00 in0.0 mm 0.00 in0.0 mm 0.00 in0.0 mm
09:25 PM 51.4°F10.8°C 44.5°F6.9°C 77% 13.4 mph S21.6 kmh S 18.6 mph29.9 kmh 29.86 in1011.2 mb 0.00 in0.0 mm 0.00 in0.0 mm 0.00 in0.0 mm
09:30 PM 51.4°F10.8°C 43.8°F6.6°C 75% 14.5 mph SSW23.3 kmh SSW 19.5 mph31.4 kmh 29.86 in1011.2 mb 0.00 in0.0 mm 0.00 in0.0 mm 0.00 in0.0 mm
09:35 PM 51.6°F10.9°C 44.0°F6.7°C 75% 11.6 mph S18.7 kmh S 20.6 mph33.2 kmh 29.86 in1011.2 mb 0.00 in0.0 mm 0.00 in0.0 mm 0.00 in0.0 mm
09:40 PM 51.6°F10.9°C 43.6°F6.4°C 74% 16.6 mph SSW26.7 kmh SSW 20.6 mph33.2 kmh 29.86 in1011.2 mb 0.00 in0.0 mm 0.00 in0.0 mm 0.00 in0.0 mm
09:45 PM 51.6°F10.9°C 44.0°F6.7°C 75% 15.7 mph SSW25.3 kmh SSW 20.1 mph32.3 kmh 29.86 in1011.2 mb 0.00 in0.0 mm 0.00 in0.0 mm 0.00 in0.0 mm
09:50 PM 51.6°F10.9°C 44.0°F6.7°C 75% 16.3 mph S26.2 kmh S 18.6 mph29.9 kmh 29.86 in1011.2 mb 0.00 in0.0 mm 0.00 in0.0 mm 0.00 in0.0 mm
09:55 PM 51.4°F10.8°C 43.8°F6.6°C 75% 8.9 mph SSW14.3 kmh SSW 19.7 mph31.7 kmh 29.86 in1011.2 mb 0.00 in0.0 mm 0.00 in0.0 mm 0.00 in0.0 mm
10:00 PM 51.4°F10.8°C 44.1°F6.7°C 76% 18.3 mph S29.5 kmh S 19.7 mph31.7 kmh 29.86 in1011.2 mb 0.00 in0.0 mm 0.00 in0.0 mm 0.00 in0.0 mm
10:05 PM 51.3°F10.7°C 44.0°F6.7°C 76% 10.3 mph S16.6 kmh S 19.7 mph31.7 kmh 29.86 in1011.2 mb 0.00 in0.0 mm 0.00 in0.0 mm 0.00 in0.0 mm
10:10 PM 51.3°F10.7°C 44.3°F6.8°C 77% 4.0 mph SSW6.4 kmh SSW 19.2 mph30.9 kmh 29.86 in1011.2 mb 0.00 in0.0 mm 0.00 in0.0 mm 0.00 in0.0 mm
10:15 PM 51.1°F10.6°C 44.1°F6.7°C 77% 20.6 mph SSW33.2 kmh SSW 20.6 mph33.2 kmh 29.86 in1011.2 mb 0.00 in0.0 mm 0.00 in0.0 mm 0.00 in0.0 mm
10:20 PM 51.3°F10.7°C 44.3°F6.8°C 77% 14.1 mph SSW22.7 kmh SSW 22.4 mph36.0 kmh 29.85 in1010.8 mb 0.00 in0.0 mm 0.00 in0.0 mm 0.00 in0.0 mm
10:25 PM 51.3°F10.7°C 44.3°F6.8°C 77% 11.6 mph SSW18.7 kmh SSW 22.4 mph36.0 kmh 29.86 in1011.2 mb 0.00 in0.0 mm 0.00 in0.0 mm 0.00 in0.0 mm
10:30 PM 51.1°F10.6°C 44.5°F6.9°C 78% 13.9 mph SSW22.4 kmh SSW 19.9 mph32.0 kmh 29.85 in1010.8 mb 0.00 in0.0 mm 0.00 in0.0 mm 0.00 in0.0 mm
10:35 PM 51.1°F10.6°C 44.1°F6.7°C 77% 11.4 mph SSW18.3 kmh SSW 20.1 mph32.3 kmh 29.86 in1011.2 mb 0.00 in0.0 mm 0.00 in0.0 mm 0.00 in0.0 mm
10:40 PM 51.1°F10.6°C 44.1°F6.7°C 77% 11.2 mph SSW18.0 kmh SSW 20.1 mph32.3 kmh 29.86 in1011.2 mb 0.00 in0.0 mm 0.00 in0.0 mm 0.00 in0.0 mm
10:45 PM 51.1°F10.6°C 44.1°F6.7°C 77% 6.7 mph SSW10.8 kmh SSW 18.8 mph30.3 kmh 29.86 in1011.2 mb 0.00 in0.0 mm 0.00 in0.0 mm 0.00 in0.0 mm
10:50 PM 51.1°F10.6°C 44.5°F6.9°C 78% 14.3 mph SSW23.0 kmh SSW 20.1 mph32.3 kmh 29.86 in1011.2 mb 0.00 in0.0 mm 0.00 in0.0 mm 0.00 in0.0 mm
10:55 PM 51.1°F10.6°C 44.5°F6.9°C 78% 12.3 mph SSW19.8 kmh SSW 20.1 mph32.3 kmh 29.86 in1011.2 mb 0.00 in0.0 mm 0.00 in0.0 mm 0.00 in0.0 mm
11:00 PM 50.9°F10.5°C 44.3°F6.8°C 78% 5.8 mph SSW9.3 kmh SSW 19.0 mph30.6 kmh 29.86 in1011.2 mb 0.00 in0.0 mm 0.00 in0.0 mm 0.00 in0.0 mm
11:05 PM 50.9°F10.5°C 44.3°F6.8°C 78% 12.3 mph SSW19.8 kmh SSW 17.4 mph28.0 kmh 29.86 in1011.2 mb 0.00 in0.0 mm 0.00 in0.0 mm 0.00 in0.0 mm
11:10 PM 50.9°F10.5°C 44.3°F6.8°C 78% 8.9 mph SSW14.3 kmh SSW 24.2 mph38.9 kmh 29.86 in1011.2 mb 0.00 in0.0 mm 0.00 in0.0 mm 0.00 in0.0 mm
11:15 PM 50.9°F10.5°C 44.3°F6.8°C 78% 14.3 mph S23.0 kmh S 24.2 mph38.9 kmh 29.86 in1011.2 mb 0.00 in0.0 mm 0.00 in0.0 mm 0.00 in0.0 mm
11:20 PM 50.9°F10.5°C 43.9°F6.6°C 77% 17.0 mph SSW27.4 kmh SSW 21.3 mph34.3 kmh 29.86 in1011.2 mb 0.00 in0.0 mm 0.00 in0.0 mm 0.00 in0.0 mm
11:25 PM 50.9°F10.5°C 43.9°F6.6°C 77% 10.1 mph S16.3 kmh S 21.9 mph35.2 kmh 29.86 in1011.2 mb 0.00 in0.0 mm 0.00 in0.0 mm 0.00 in0.0 mm
11:30 PM 50.9°F10.5°C 43.9°F6.6°C 77% 18.1 mph S29.1 kmh S 21.9 mph35.2 kmh 29.86 in1011.2 mb 0.00 in0.0 mm 0.00 in0.0 mm 0.00 in0.0 mm
11:35 PM 50.9°F10.5°C 43.9°F6.6°C 77% 13.0 mph S20.9 kmh S 19.7 mph31.7 kmh 29.86 in1011.2 mb 0.00 in0.0 mm 0.00 in0.0 mm 0.00 in0.0 mm
11:40 PM 50.7°F10.4°C 43.8°F6.6°C 77% 10.7 mph SSW17.2 kmh SSW 20.1 mph32.3 kmh 29.86 in1011.2 mb 0.00 in0.0 mm 0.00 in0.0 mm 0.00 in0.0 mm
11:45 PM 50.9°F10.5°C 43.6°F6.4°C 76% 11.9 mph SSW19.2 kmh SSW 22.1 mph35.6 kmh 29.86 in1011.2 mb 0.00 in0.0 mm 0.00 in0.0 mm 0.00 in0.0 mm
11:50 PM 50.9°F10.5°C 43.6°F6.4°C 76% 17.9 mph SSW28.8 kmh SSW 22.1 mph35.6 kmh 29.86 in1011.2 mb 0.00 in0.0 mm 0.00 in0.0 mm 0.00 in0.0 mm
11:55 PM 50.7°F10.4°C 43.4°F6.3°C 76% 8.7 mph SSW14.0 kmh SSW 19.5 mph31.4 kmh 29.86 in1011.2 mb 0.00 in0.0 mm 0.00 in0.0 mm 0.00 in0.0 mm